sensor_id;sensor_type;location;lat;lon;timestamp;P1;durP1;ratioP1;P2;durP2;ratioP2
80557;SDS011;69901;43.524;-5.636;2023-12-04T00:01:15;10.73;;;9.93;;
80557;SDS011;69901;43.524;-5.636;2023-12-04T00:03:41;11.35;;;10.55;;
80557;SDS011;69901;43.524;-5.636;2023-12-04T00:06:06;11.37;;;10.47;;
80557;SDS011;69901;43.524;-5.636;2023-12-04T00:08:32;11.43;;;10.63;;
80557;SDS011;69901;43.524;-5.636;2023-12-04T00:10:58;11.10;;;10.30;;
80557;SDS011;69901;43.524;-5.636;2023-12-04T00:13:24;11.47;;;10.67;;
80557;SDS011;69901;43.524;-5.636;2023-12-04T00:15:49;10.90;;;10.10;;
80557;SDS011;69901;43.524;-5.636;2023-12-04T00:18:15;11.80;;;11.00;;
80557;SDS011;69901;43.524;-5.636;2023-12-04T00:20:40;11.50;;;10.70;;
80557;SDS011;69901;43.524;-5.636;2023-12-04T00:23:05;11.50;;;10.70;;
80557;SDS011;69901;43.524;-5.636;2023-12-04T00:25:31;11.33;;;10.53;;
80557;SDS011;69901;43.524;-5.636;2023-12-04T00:27:57;12.02;;;11.20;;
80557;SDS011;69901;43.524;-5.636;2023-12-04T00:30:22;10.73;;;9.93;;
80557;SDS011;69901;43.524;-5.636;2023-12-04T00:32:48;10.80;;;9.90;;
80557;SDS011;69901;43.524;-5.636;2023-12-04T00:35:13;10.98;;;10.15;;
80557;SDS011;69901;43.524;-5.636;2023-12-04T00:37:39;11.83;;;10.63;;
80557;SDS011;69901;43.524;-5.636;2023-12-04T00:40:05;11.80;;;10.90;;
80557;SDS011;69901;43.524;-5.636;2023-12-04T00:42:31;11.73;;;10.75;;
80557;SDS011;69901;43.524;-5.636;2023-12-04T00:44:56;10.80;;;9.83;;
80557;SDS011;69901;43.524;-5.636;2023-12-04T00:47:22;11.40;;;10.50;;
80557;SDS011;69901;43.524;-5.636;2023-12-04T00:49:48;11.07;;;10.20;;
80557;SDS011;69901;43.524;-5.636;2023-12-04T00:52:13;11.03;;;10.23;;
80557;SDS011;69901;43.524;-5.636;2023-12-04T00:54:39;11.48;;;10.57;;
80557;SDS011;69901;43.524;-5.636;2023-12-04T00:57:06;10.40;;;9.60;;
80557;SDS011;69901;43.524;-5.636;2023-12-04T00:59:31;10.85;;;10.05;;
80557;SDS011;69901;43.524;-5.636;2023-12-04T01:01:57;11.13;;;10.33;;
80557;SDS011;69901;43.524;-5.636;2023-12-04T01:04:22;11.05;;;10.25;;
80557;SDS011;69901;43.524;-5.636;2023-12-04T01:06:48;11.43;;;10.63;;
80557;SDS011;69901;43.524;-5.636;2023-12-04T01:09:13;10.97;;;10.17;;
80557;SDS011;69901;43.524;-5.636;2023-12-04T01:11:39;10.88;;;10.07;;
80557;SDS011;69901;43.524;-5.636;2023-12-04T01:14:05;10.80;;;10.00;;
80557;SDS011;69901;43.524;-5.636;2023-12-04T01:16:30;10.80;;;10.00;;
80557;SDS011;69901;43.524;-5.636;2023-12-04T01:18:56;11.13;;;10.33;;
80557;SDS011;69901;43.524;-5.636;2023-12-04T01:21:21;10.53;;;9.73;;
80557;SDS011;69901;43.524;-5.636;2023-12-04T01:23:47;10.23;;;9.45;;
80557;SDS011;69901;43.524;-5.636;2023-12-04T01:26:12;11.30;;;10.50;;
80557;SDS011;69901;43.524;-5.636;2023-12-04T01:28:38;10.73;;;9.93;;
80557;SDS011;69901;43.524;-5.636;2023-12-04T01:31:04;11.30;;;10.50;;
80557;SDS011;69901;43.524;-5.636;2023-12-04T01:33:30;11.10;;;10.30;;
80557;SDS011;69901;43.524;-5.636;2023-12-04T01:35:55;11.18;;;10.38;;
80557;SDS011;69901;43.524;-5.636;2023-12-04T01:38:21;10.33;;;9.53;;
80557;SDS011;69901;43.524;-5.636;2023-12-04T01:40:46;11.10;;;10.30;;
80557;SDS011;69901;43.524;-5.636;2023-12-04T01:43:12;10.90;;;10.10;;
80557;SDS011;69901;43.524;-5.636;2023-12-04T01:45:37;11.57;;;10.77;;
80557;SDS011;69901;43.524;-5.636;2023-12-04T01:48:03;11.32;;;10.50;;
80557;SDS011;69901;43.524;-5.636;2023-12-04T01:50:31;10.77;;;9.98;;
80557;SDS011;69901;43.524;-5.636;2023-12-04T01:52:59;9.93;;;9.23;;
80557;SDS011;69901;43.524;-5.636;2023-12-04T01:55:25;10.45;;;9.65;;
80557;SDS011;69901;43.524;-5.636;2023-12-04T01:57:52;11.05;;;10.25;;
80557;SDS011;69901;43.524;-5.636;2023-12-04T02:00:18;10.05;;;9.13;;
80557;SDS011;69901;43.524;-5.636;2023-12-04T02:02:46;11.15;;;10.25;;
80557;SDS011;69901;43.524;-5.636;2023-12-04T02:05:12;10.37;;;9.57;;
80557;SDS011;69901;43.524;-5.636;2023-12-04T02:07:40;11.13;;;10.32;;
80557;SDS011;69901;43.524;-5.636;2023-12-04T02:10:06;11.30;;;10.50;;
80557;SDS011;69901;43.524;-5.636;2023-12-04T02:12:32;10.48;;;9.68;;
80557;SDS011;69901;43.524;-5.636;2023-12-04T02:14:58;11.00;;;10.20;;
80557;SDS011;69901;43.524;-5.636;2023-12-04T02:17:24;10.82;;;10.02;;
80557;SDS011;69901;43.524;-5.636;2023-12-04T02:19:51;11.20;;;10.38;;
80557;SDS011;69901;43.524;-5.636;2023-12-04T02:22:17;10.80;;;10.00;;
80557;SDS011;69901;43.524;-5.636;2023-12-04T02:24:43;10.70;;;9.90;;
80557;SDS011;69901;43.524;-5.636;2023-12-04T02:27:12;11.20;;;10.40;;
80557;SDS011;69901;43.524;-5.636;2023-12-04T02:29:41;11.43;;;10.63;;
80557;SDS011;69901;43.524;-5.636;2023-12-04T02:32:18;10.98;;;10.18;;
80557;SDS011;69901;43.524;-5.636;2023-12-04T02:34:46;11.15;;;10.35;;
80557;SDS011;69901;43.524;-5.636;2023-12-04T02:37:14;11.33;;;10.53;;
80557;SDS011;69901;43.524;-5.636;2023-12-04T02:39:40;11.00;;;10.20;;
80557;SDS011;69901;43.524;-5.636;2023-12-04T02:42:06;11.10;;;10.30;;
80557;SDS011;69901;43.524;-5.636;2023-12-04T02:44:32;10.63;;;9.83;;
80557;SDS011;69901;43.524;-5.636;2023-12-04T02:46:58;11.00;;;10.20;;
80557;SDS011;69901;43.524;-5.636;2023-12-04T02:49:23;10.73;;;9.93;;
80557;SDS011;69901;43.524;-5.636;2023-12-04T02:51:49;10.93;;;10.13;;
80557;SDS011;69901;43.524;-5.636;2023-12-04T02:54:14;10.57;;;9.77;;
80557;SDS011;69901;43.524;-5.636;2023-12-04T02:56:40;10.63;;;9.83;;
80557;SDS011;69901;43.524;-5.636;2023-12-04T02:59:05;10.53;;;9.73;;
80557;SDS011;69901;43.524;-5.636;2023-12-04T03:01:31;10.55;;;9.75;;
80557;SDS011;69901;43.524;-5.636;2023-12-04T03:03:57;10.67;;;9.87;;
80557;SDS011;69901;43.524;-5.636;2023-12-04T03:06:22;11.17;;;10.37;;
80557;SDS011;69901;43.524;-5.636;2023-12-04T03:08:47;10.77;;;9.90;;
80557;SDS011;69901;43.524;-5.636;2023-12-04T03:11:13;11.10;;;10.30;;
80557;SDS011;69901;43.524;-5.636;2023-12-04T03:13:39;10.93;;;10.13;;
80557;SDS011;69901;43.524;-5.636;2023-12-04T03:16:04;10.98;;;10.18;;
80557;SDS011;69901;43.524;-5.636;2023-12-04T03:18:30;11.47;;;10.67;;
80557;SDS011;69901;43.524;-5.636;2023-12-04T03:20:55;11.18;;;10.38;;
80557;SDS011;69901;43.524;-5.636;2023-12-04T03:23:21;10.63;;;9.83;;
80557;SDS011;69901;43.524;-5.636;2023-12-04T03:25:46;11.07;;;10.27;;
80557;SDS011;69901;43.524;-5.636;2023-12-04T03:28:12;11.75;;;10.95;;
80557;SDS011;69901;43.524;-5.636;2023-12-04T03:30:40;10.70;;;9.87;;
80557;SDS011;69901;43.524;-5.636;2023-12-04T03:33:08;10.73;;;9.80;;
80557;SDS011;69901;43.524;-5.636;2023-12-04T03:35:34;11.07;;;10.27;;
80557;SDS011;69901;43.524;-5.636;2023-12-04T03:38:00;10.87;;;9.97;;
80557;SDS011;69901;43.524;-5.636;2023-12-04T03:40:25;11.10;;;10.20;;
80557;SDS011;69901;43.524;-5.636;2023-12-04T03:42:51;10.48;;;9.68;;
80557;SDS011;69901;43.524;-5.636;2023-12-04T03:45:16;10.77;;;9.97;;
80557;SDS011;69901;43.524;-5.636;2023-12-04T03:47:42;10.80;;;10.00;;
80557;SDS011;69901;43.524;-5.636;2023-12-04T03:50:07;11.40;;;10.50;;
80557;SDS011;69901;43.524;-5.636;2023-12-04T03:52:33;11.07;;;10.17;;
80557;SDS011;69901;43.524;-5.636;2023-12-04T03:54:59;11.52;;;10.52;;
80557;SDS011;69901;43.524;-5.636;2023-12-04T03:57:24;10.67;;;9.87;;
80557;SDS011;69901;43.524;-5.636;2023-12-04T03:59:50;11.20;;;10.30;;
80557;SDS011;69901;43.524;-5.636;2023-12-04T04:02:15;11.00;;;10.20;;
80557;SDS011;69901;43.524;-5.636;2023-12-04T04:04:41;10.00;;;9.20;;
80557;SDS011;69901;43.524;-5.636;2023-12-04T04:07:06;10.63;;;9.83;;
80557;SDS011;69901;43.524;-5.636;2023-12-04T04:09:32;10.82;;;10.02;;
80557;SDS011;69901;43.524;-5.636;2023-12-04T04:11:57;10.60;;;9.80;;
80557;SDS011;69901;43.524;-5.636;2023-12-04T04:14:23;10.80;;;10.00;;
80557;SDS011;69901;43.524;-5.636;2023-12-04T04:16:49;11.38;;;10.38;;
80557;SDS011;69901;43.524;-5.636;2023-12-04T04:19:15;10.63;;;9.83;;
80557;SDS011;69901;43.524;-5.636;2023-12-04T04:21:40;11.23;;;10.43;;
80557;SDS011;69901;43.524;-5.636;2023-12-04T04:24:06;10.90;;;10.10;;
80557;SDS011;69901;43.524;-5.636;2023-12-04T04:26:31;12.27;;;11.17;;
80557;SDS011;69901;43.524;-5.636;2023-12-04T04:28:58;10.53;;;9.73;;
80557;SDS011;69901;43.524;-5.636;2023-12-04T04:31:23;10.57;;;9.77;;
80557;SDS011;69901;43.524;-5.636;2023-12-04T04:33:49;11.70;;;10.80;;
80557;SDS011;69901;43.524;-5.636;2023-12-04T04:36:14;11.17;;;10.37;;
80557;SDS011;69901;43.524;-5.636;2023-12-04T04:38:40;11.30;;;10.47;;
80557;SDS011;69901;43.524;-5.636;2023-12-04T04:41:05;10.40;;;9.57;;
80557;SDS011;69901;43.524;-5.636;2023-12-04T04:43:31;11.07;;;10.18;;
80557;SDS011;69901;43.524;-5.636;2023-12-04T04:45:57;11.03;;;10.03;;
80557;SDS011;69901;43.524;-5.636;2023-12-04T04:48:22;11.10;;;10.13;;
80557;SDS011;69901;43.524;-5.636;2023-12-04T04:50:48;10.75;;;9.95;;
80557;SDS011;69901;43.524;-5.636;2023-12-04T04:53:13;11.50;;;10.60;;
80557;SDS011;69901;43.524;-5.636;2023-12-04T04:55:39;11.40;;;10.40;;
80557;SDS011;69901;43.524;-5.636;2023-12-04T04:58:04;10.75;;;9.85;;
80557;SDS011;69901;43.524;-5.636;2023-12-04T05:00:30;10.53;;;9.73;;
80557;SDS011;69901;43.524;-5.636;2023-12-04T05:02:55;11.33;;;10.40;;
80557;SDS011;69901;43.524;-5.636;2023-12-04T05:05:21;10.57;;;9.77;;
80557;SDS011;69901;43.524;-5.636;2023-12-04T05:07:46;11.87;;;10.87;;
80557;SDS011;69901;43.524;-5.636;2023-12-04T05:10:12;11.33;;;10.53;;
80557;SDS011;69901;43.524;-5.636;2023-12-04T05:12:37;11.00;;;10.10;;
80557;SDS011;69901;43.524;-5.636;2023-12-04T05:15:03;10.83;;;10.03;;
80557;SDS011;69901;43.524;-5.636;2023-12-04T05:17:29;11.23;;;10.32;;
80557;SDS011;69901;43.524;-5.636;2023-12-04T05:19:55;11.45;;;10.48;;
80557;SDS011;69901;43.524;-5.636;2023-12-04T05:22:20;11.03;;;10.13;;
80557;SDS011;69901;43.524;-5.636;2023-12-04T05:24:46;10.90;;;9.97;;
80557;SDS011;69901;43.524;-5.636;2023-12-04T05:27:11;11.07;;;10.07;;
80557;SDS011;69901;43.524;-5.636;2023-12-04T05:29:37;10.77;;;9.80;;
80557;SDS011;69901;43.524;-5.636;2023-12-04T05:32:03;11.10;;;10.20;;
80557;SDS011;69901;43.524;-5.636;2023-12-04T05:34:30;11.15;;;10.07;;
80557;SDS011;69901;43.524;-5.636;2023-12-04T05:36:55;11.50;;;10.43;;
80557;SDS011;69901;43.524;-5.636;2023-12-04T05:39:21;11.43;;;10.43;;
80557;SDS011;69901;43.524;-5.636;2023-12-04T05:41:46;11.85;;;10.95;;
80557;SDS011;69901;43.524;-5.636;2023-12-04T05:44:13;12.07;;;10.97;;
80557;SDS011;69901;43.524;-5.636;2023-12-04T05:46:39;11.25;;;10.35;;
80557;SDS011;69901;43.524;-5.636;2023-12-04T05:49:04;11.93;;;10.97;;
80557;SDS011;69901;43.524;-5.636;2023-12-04T05:51:29;11.25;;;10.35;;
80557;SDS011;69901;43.524;-5.636;2023-12-04T05:53:55;10.67;;;9.77;;
80557;SDS011;69901;43.524;-5.636;2023-12-04T05:56:21;10.73;;;9.63;;
80557;SDS011;69901;43.524;-5.636;2023-12-04T05:58:46;10.60;;;9.70;;
80557;SDS011;69901;43.524;-5.636;2023-12-04T06:01:12;11.83;;;10.80;;
80557;SDS011;69901;43.524;-5.636;2023-12-04T06:03:37;11.27;;;10.37;;
80557;SDS011;69901;43.524;-5.636;2023-12-04T06:06:03;10.80;;;9.82;;
80557;SDS011;69901;43.524;-5.636;2023-12-04T06:08:29;11.27;;;10.17;;
80557;SDS011;69901;43.524;-5.636;2023-12-04T06:10:54;11.75;;;10.63;;
80557;SDS011;69901;43.524;-5.636;2023-12-04T06:13:20;11.17;;;10.37;;
80557;SDS011;69901;43.524;-5.636;2023-12-04T06:15:45;11.53;;;10.63;;
80557;SDS011;69901;43.524;-5.636;2023-12-04T06:18:11;11.52;;;10.63;;
80557;SDS011;69901;43.524;-5.636;2023-12-04T06:20:36;11.60;;;10.70;;
80557;SDS011;69901;43.524;-5.636;2023-12-04T06:23:02;11.57;;;10.57;;
80557;SDS011;69901;43.524;-5.636;2023-12-04T06:25:28;11.97;;;10.97;;
80557;SDS011;69901;43.524;-5.636;2023-12-04T06:27:54;11.88;;;10.85;;
80557;SDS011;69901;43.524;-5.636;2023-12-04T06:30:19;12.07;;;10.97;;
80557;SDS011;69901;43.524;-5.636;2023-12-04T06:32:45;11.23;;;10.32;;
80557;SDS011;69901;43.524;-5.636;2023-12-04T06:35:11;11.38;;;10.55;;
80557;SDS011;69901;43.524;-5.636;2023-12-04T06:37:38;11.77;;;10.93;;
80557;SDS011;69901;43.524;-5.636;2023-12-04T06:40:05;11.80;;;10.80;;
80557;SDS011;69901;43.524;-5.636;2023-12-04T06:42:34;11.40;;;10.50;;
80557;SDS011;69901;43.524;-5.636;2023-12-04T06:45:00;10.70;;;9.80;;
80557;SDS011;69901;43.524;-5.636;2023-12-04T06:47:26;11.63;;;10.63;;
80557;SDS011;69901;43.524;-5.636;2023-12-04T06:49:56;11.50;;;10.60;;
80557;SDS011;69901;43.524;-5.636;2023-12-04T06:52:21;11.87;;;10.97;;
80557;SDS011;69901;43.524;-5.636;2023-12-04T06:54:47;11.25;;;10.43;;
80557;SDS011;69901;43.524;-5.636;2023-12-04T06:57:13;11.03;;;10.13;;
80557;SDS011;69901;43.524;-5.636;2023-12-04T06:59:40;12.13;;;11.18;;
80557;SDS011;69901;43.524;-5.636;2023-12-04T07:02:09;11.63;;;10.82;;
80557;SDS011;69901;43.524;-5.636;2023-12-04T07:04:34;10.87;;;9.87;;
80557;SDS011;69901;43.524;-5.636;2023-12-04T07:07:00;9.80;;;8.80;;
80557;SDS011;69901;43.524;-5.636;2023-12-04T07:09:33;10.75;;;9.75;;
80557;SDS011;69901;43.524;-5.636;2023-12-04T07:12:01;11.15;;;10.20;;
80557;SDS011;69901;43.524;-5.636;2023-12-04T07:14:28;11.55;;;10.60;;
80557;SDS011;69901;43.524;-5.636;2023-12-04T07:16:53;11.47;;;10.57;;
80557;SDS011;69901;43.524;-5.636;2023-12-04T07:19:19;11.23;;;10.43;;
80557;SDS011;69901;43.524;-5.636;2023-12-04T07:21:47;12.43;;;11.27;;
80557;SDS011;69901;43.524;-5.636;2023-12-04T07:24:13;12.43;;;11.43;;
80557;SDS011;69901;43.524;-5.636;2023-12-04T07:26:39;11.02;;;10.13;;
80557;SDS011;69901;43.524;-5.636;2023-12-04T07:29:04;10.90;;;10.03;;
80557;SDS011;69901;43.524;-5.636;2023-12-04T07:31:30;11.13;;;10.23;;
80557;SDS011;69901;43.524;-5.636;2023-12-04T07:34:01;10.20;;;9.32;;
80557;SDS011;69901;43.524;-5.636;2023-12-04T07:36:29;10.73;;;9.68;;
80557;SDS011;69901;43.524;-5.636;2023-12-04T07:38:54;10.33;;;9.43;;
80557;SDS011;69901;43.524;-5.636;2023-12-04T07:41:20;10.98;;;10.18;;
80557;SDS011;69901;43.524;-5.636;2023-12-04T07:43:47;10.40;;;9.50;;
80557;SDS011;69901;43.524;-5.636;2023-12-04T07:46:12;11.37;;;10.47;;
80557;SDS011;69901;43.524;-5.636;2023-12-04T07:48:39;10.57;;;9.55;;
80557;SDS011;69901;43.524;-5.636;2023-12-04T07:51:05;10.40;;;9.50;;
80557;SDS011;69901;43.524;-5.636;2023-12-04T07:53:31;10.17;;;9.37;;
80557;SDS011;69901;43.524;-5.636;2023-12-04T07:55:57;9.80;;;9.00;;
80557;SDS011;69901;43.524;-5.636;2023-12-04T07:58:25;10.32;;;9.52;;
80557;SDS011;69901;43.524;-5.636;2023-12-04T08:00:51;10.40;;;9.60;;
80557;SDS011;69901;43.524;-5.636;2023-12-04T08:03:16;10.40;;;9.60;;
80557;SDS011;69901;43.524;-5.636;2023-12-04T08:05:42;11.10;;;10.13;;
80557;SDS011;69901;43.524;-5.636;2023-12-04T08:08:07;10.20;;;9.40;;
80557;SDS011;69901;43.524;-5.636;2023-12-04T08:10:33;10.93;;;9.98;;
80557;SDS011;69901;43.524;-5.636;2023-12-04T08:12:58;10.33;;;9.43;;
80557;SDS011;69901;43.524;-5.636;2023-12-04T08:15:24;10.83;;;9.83;;
80557;SDS011;69901;43.524;-5.636;2023-12-04T08:17:50;11.27;;;10.38;;
80557;SDS011;69901;43.524;-5.636;2023-12-04T08:20:15;11.00;;;10.10;;
80557;SDS011;69901;43.524;-5.636;2023-12-04T08:22:41;10.20;;;9.32;;
80557;SDS011;69901;43.524;-5.636;2023-12-04T08:25:09;11.33;;;10.43;;
80557;SDS011;69901;43.524;-5.636;2023-12-04T08:27:35;11.35;;;10.35;;
80557;SDS011;69901;43.524;-5.636;2023-12-04T08:30:01;10.73;;;9.80;;
80557;SDS011;69901;43.524;-5.636;2023-12-04T08:32:28;11.20;;;10.27;;
80557;SDS011;69901;43.524;-5.636;2023-12-04T08:34:53;11.60;;;10.70;;
80557;SDS011;69901;43.524;-5.636;2023-12-04T08:37:19;11.57;;;10.68;;
80557;SDS011;69901;43.524;-5.636;2023-12-04T08:39:45;11.60;;;10.70;;
80557;SDS011;69901;43.524;-5.636;2023-12-04T08:42:11;11.30;;;10.40;;
80557;SDS011;69901;43.524;-5.636;2023-12-04T08:44:37;12.30;;;11.35;;
80557;SDS011;69901;43.524;-5.636;2023-12-04T08:47:02;11.57;;;10.67;;
80557;SDS011;69901;43.524;-5.636;2023-12-04T08:49:28;11.68;;;10.88;;
80557;SDS011;69901;43.524;-5.636;2023-12-04T08:51:54;10.80;;;9.90;;
80557;SDS011;69901;43.524;-5.636;2023-12-04T08:54:19;10.73;;;9.77;;
80557;SDS011;69901;43.524;-5.636;2023-12-04T08:56:45;11.95;;;10.88;;
80557;SDS011;69901;43.524;-5.636;2023-12-04T08:59:10;11.17;;;10.37;;
80557;SDS011;69901;43.524;-5.636;2023-12-04T09:01:38;10.80;;;10.00;;
80557;SDS011;69901;43.524;-5.636;2023-12-04T09:04:04;12.05;;;11.10;;
80557;SDS011;69901;43.524;-5.636;2023-12-04T09:06:30;11.40;;;10.53;;
80557;SDS011;69901;43.524;-5.636;2023-12-04T09:08:55;10.77;;;9.98;;
80557;SDS011;69901;43.524;-5.636;2023-12-04T09:11:21;10.80;;;10.00;;
80557;SDS011;69901;43.524;-5.636;2023-12-04T09:13:46;11.97;;;10.87;;
80557;SDS011;69901;43.524;-5.636;2023-12-04T09:16:12;11.80;;;10.90;;
80557;SDS011;69901;43.524;-5.636;2023-12-04T09:18:38;11.80;;;11.00;;
80557;SDS011;69901;43.524;-5.636;2023-12-04T09:21:04;12.30;;;11.20;;
80557;SDS011;69901;43.524;-5.636;2023-12-04T09:23:39;11.30;;;10.50;;
80557;SDS011;69901;43.524;-5.636;2023-12-04T09:26:04;11.93;;;11.13;;
80557;SDS011;69901;43.524;-5.636;2023-12-04T09:28:30;11.65;;;10.75;;
80557;SDS011;69901;43.524;-5.636;2023-12-04T09:30:56;11.50;;;10.60;;
80557;SDS011;69901;43.524;-5.636;2023-12-04T09:33:21;12.67;;;11.77;;
80557;SDS011;69901;43.524;-5.636;2023-12-04T09:35:47;11.10;;;10.17;;
80557;SDS011;69901;43.524;-5.636;2023-12-04T09:38:12;12.30;;;11.30;;
80557;SDS011;69901;43.524;-5.636;2023-12-04T09:40:38;11.47;;;10.57;;
80557;SDS011;69901;43.524;-5.636;2023-12-04T09:43:04;12.13;;;11.23;;
80557;SDS011;69901;43.524;-5.636;2023-12-04T09:45:30;12.10;;;11.13;;
80557;SDS011;69901;43.524;-5.636;2023-12-04T09:47:57;12.10;;;11.07;;
80557;SDS011;69901;43.524;-5.636;2023-12-04T09:50:24;12.32;;;11.23;;
80557;SDS011;69901;43.524;-5.636;2023-12-04T09:52:50;12.70;;;11.73;;
80557;SDS011;69901;43.524;-5.636;2023-12-04T09:55:16;11.93;;;10.93;;
80557;SDS011;69901;43.524;-5.636;2023-12-04T09:57:43;12.52;;;11.63;;
80557;SDS011;69901;43.524;-5.636;2023-12-04T10:00:10;12.95;;;11.95;;
80557;SDS011;69901;43.524;-5.636;2023-12-04T10:02:38;12.77;;;11.88;;
80557;SDS011;69901;43.524;-5.636;2023-12-04T10:05:05;14.10;;;12.88;;
80557;SDS011;69901;43.524;-5.636;2023-12-04T10:07:31;12.53;;;11.53;;
80557;SDS011;69901;43.524;-5.636;2023-12-04T10:09:57;11.48;;;10.52;;
80557;SDS011;69901;43.524;-5.636;2023-12-04T10:12:22;11.33;;;10.53;;
80557;SDS011;69901;43.524;-5.636;2023-12-04T10:17:32;12.23;;;10.95;;
80557;SDS011;69901;43.524;-5.636;2023-12-04T10:20:04;11.48;;;10.57;;
80557;SDS011;69901;43.524;-5.636;2023-12-04T10:23:00;11.85;;;10.85;;
80557;SDS011;69901;43.524;-5.636;2023-12-04T10:25:28;11.32;;;10.40;;
80557;SDS011;69901;43.524;-5.636;2023-12-04T10:28:15;11.27;;;10.03;;
80557;SDS011;69901;43.524;-5.636;2023-12-04T10:30:41;11.18;;;10.27;;
80557;SDS011;69901;43.524;-5.636;2023-12-04T10:33:07;12.15;;;11.07;;
80557;SDS011;69901;43.524;-5.636;2023-12-04T10:35:33;12.85;;;11.85;;
80557;SDS011;69901;43.524;-5.636;2023-12-04T10:38:06;23.42;;;12.80;;
80557;SDS011;69901;43.524;-5.636;2023-12-04T10:40:33;12.47;;;11.57;;
80557;SDS011;69901;43.524;-5.636;2023-12-04T10:43:19;13.15;;;12.23;;
80557;SDS011;69901;43.524;-5.636;2023-12-04T10:45:47;13.20;;;12.20;;
80557;SDS011;69901;43.524;-5.636;2023-12-04T10:48:14;12.25;;;11.35;;
80557;SDS011;69901;43.524;-5.636;2023-12-04T10:50:44;12.65;;;11.65;;
80557;SDS011;69901;43.524;-5.636;2023-12-04T10:53:14;12.27;;;11.20;;
80557;SDS011;69901;43.524;-5.636;2023-12-04T10:55:40;11.60;;;10.60;;
80557;SDS011;69901;43.524;-5.636;2023-12-04T10:58:10;11.25;;;10.18;;
80557;SDS011;69901;43.524;-5.636;2023-12-04T11:00:44;11.02;;;10.02;;
80557;SDS011;69901;43.524;-5.636;2023-12-04T11:03:19;12.30;;;11.30;;
80557;SDS011;69901;43.524;-5.636;2023-12-04T11:05:55;11.57;;;10.37;;
80557;SDS011;69901;43.524;-5.636;2023-12-04T11:08:24;11.52;;;10.63;;
80557;SDS011;69901;43.524;-5.636;2023-12-04T11:10:58;11.65;;;10.73;;
80557;SDS011;69901;43.524;-5.636;2023-12-04T11:13:28;12.80;;;11.63;;
80557;SDS011;69901;43.524;-5.636;2023-12-04T11:16:02;12.68;;;11.68;;
80557;SDS011;69901;43.524;-5.636;2023-12-04T11:18:37;11.97;;;10.83;;
80557;SDS011;69901;43.524;-5.636;2023-12-04T11:21:08;12.93;;;11.77;;
80557;SDS011;69901;43.524;-5.636;2023-12-04T11:23:36;12.18;;;11.20;;
80557;SDS011;69901;43.524;-5.636;2023-12-04T11:26:03;12.95;;;11.75;;
80557;SDS011;69901;43.524;-5.636;2023-12-04T11:28:30;12.10;;;11.05;;
80557;SDS011;69901;43.524;-5.636;2023-12-04T11:30:57;12.30;;;11.13;;
80557;SDS011;69901;43.524;-5.636;2023-12-04T11:33:24;12.50;;;11.30;;
80557;SDS011;69901;43.524;-5.636;2023-12-04T11:35:50;11.57;;;10.57;;
80557;SDS011;69901;43.524;-5.636;2023-12-04T11:38:18;11.23;;;10.27;;
80557;SDS011;69901;43.524;-5.636;2023-12-04T11:40:46;10.57;;;9.55;;
80557;SDS011;69901;43.524;-5.636;2023-12-04T11:43:24;11.43;;;10.52;;
80557;SDS011;69901;43.524;-5.636;2023-12-04T11:45:52;11.30;;;10.40;;
80557;SDS011;69901;43.524;-5.636;2023-12-04T11:48:22;11.18;;;10.25;;
80557;SDS011;69901;43.524;-5.636;2023-12-04T11:50:51;11.23;;;10.33;;
80557;SDS011;69901;43.524;-5.636;2023-12-04T11:53:17;13.70;;;10.73;;
80557;SDS011;69901;43.524;-5.636;2023-12-04T11:55:42;12.23;;;11.07;;
80557;SDS011;69901;43.524;-5.636;2023-12-04T11:58:08;12.25;;;11.18;;
80557;SDS011;69901;43.524;-5.636;2023-12-04T12:00:35;12.03;;;10.13;;
80557;SDS011;69901;43.524;-5.636;2023-12-04T12:03:03;12.13;;;10.68;;
80557;SDS011;69901;43.524;-5.636;2023-12-04T12:05:32;12.43;;;11.05;;
80557;SDS011;69901;43.524;-5.636;2023-12-04T12:08:02;12.82;;;11.30;;
80557;SDS011;69901;43.524;-5.636;2023-12-04T12:10:28;12.77;;;11.68;;
80557;SDS011;69901;43.524;-5.636;2023-12-04T12:12:54;11.90;;;10.77;;
80557;SDS011;69901;43.524;-5.636;2023-12-04T12:15:21;12.65;;;11.55;;
80557;SDS011;69901;43.524;-5.636;2023-12-04T12:17:47;14.15;;;12.70;;
80557;SDS011;69901;43.524;-5.636;2023-12-04T12:20:13;13.37;;;12.13;;
80557;SDS011;69901;43.524;-5.636;2023-12-04T12:22:39;13.13;;;11.68;;
80557;SDS011;69901;43.524;-5.636;2023-12-04T12:25:08;11.85;;;10.52;;
80557;SDS011;69901;43.524;-5.636;2023-12-04T12:27:35;11.83;;;10.77;;
80557;SDS011;69901;43.524;-5.636;2023-12-04T12:30:01;12.23;;;11.13;;
80557;SDS011;69901;43.524;-5.636;2023-12-04T12:32:29;11.52;;;10.55;;
80557;SDS011;69901;43.524;-5.636;2023-12-04T12:34:56;11.68;;;10.52;;
80557;SDS011;69901;43.524;-5.636;2023-12-04T12:37:21;11.30;;;10.37;;
80557;SDS011;69901;43.524;-5.636;2023-12-04T12:39:47;11.80;;;10.90;;
80557;SDS011;69901;43.524;-5.636;2023-12-04T12:42:25;11.33;;;10.43;;
80557;SDS011;69901;43.524;-5.636;2023-12-04T12:44:52;11.18;;;10.18;;
80557;SDS011;69901;43.524;-5.636;2023-12-04T12:47:18;11.65;;;10.65;;
80557;SDS011;69901;43.524;-5.636;2023-12-04T12:49:46;11.17;;;10.27;;
80557;SDS011;69901;43.524;-5.636;2023-12-04T12:52:12;11.50;;;10.60;;
80557;SDS011;69901;43.524;-5.636;2023-12-04T12:54:38;11.10;;;10.20;;
80557;SDS011;69901;43.524;-5.636;2023-12-04T12:57:07;11.07;;;10.18;;
80557;SDS011;69901;43.524;-5.636;2023-12-04T12:59:33;11.57;;;10.63;;
80557;SDS011;69901;43.524;-5.636;2023-12-04T13:01:59;10.60;;;9.70;;
80557;SDS011;69901;43.524;-5.636;2023-12-04T13:04:25;11.00;;;10.10;;
80557;SDS011;69901;43.524;-5.636;2023-12-04T13:06:51;10.77;;;9.98;;
80557;SDS011;69901;43.524;-5.636;2023-12-04T13:09:17;11.20;;;10.10;;
80557;SDS011;69901;43.524;-5.636;2023-12-04T13:11:46;10.53;;;9.70;;
80557;SDS011;69901;43.524;-5.636;2023-12-04T13:14:13;10.85;;;10.05;;
80557;SDS011;69901;43.524;-5.636;2023-12-04T13:16:39;11.73;;;10.73;;
80557;SDS011;69901;43.524;-5.636;2023-12-04T13:19:05;11.13;;;10.00;;
80557;SDS011;69901;43.524;-5.636;2023-12-04T13:21:31;11.00;;;9.95;;
80557;SDS011;69901;43.524;-5.636;2023-12-04T13:23:56;11.60;;;10.60;;
80557;SDS011;69901;43.524;-5.636;2023-12-04T13:26:22;11.40;;;10.20;;
80557;SDS011;69901;43.524;-5.636;2023-12-04T13:28:48;9.57;;;8.65;;
80557;SDS011;69901;43.524;-5.636;2023-12-04T13:31:13;10.70;;;8.43;;
80557;SDS011;69901;43.524;-5.636;2023-12-04T13:33:39;11.80;;;9.90;;
80557;SDS011;69901;43.524;-5.636;2023-12-04T13:36:05;10.77;;;9.30;;
80557;SDS011;69901;43.524;-5.636;2023-12-04T13:38:30;9.70;;;7.90;;
80557;SDS011;69901;43.524;-5.636;2023-12-04T13:40:56;10.07;;;9.07;;
80557;SDS011;69901;43.524;-5.636;2023-12-04T13:43:33;11.75;;;9.18;;
80557;SDS011;69901;43.524;-5.636;2023-12-04T13:46:17;9.90;;;6.90;;
80557;SDS011;69901;43.524;-5.636;2023-12-04T13:48:42;12.38;;;3.25;;
80557;SDS011;69901;43.524;-5.636;2023-12-04T13:51:09;15.68;;;4.00;;
80557;SDS011;69901;43.524;-5.636;2023-12-04T13:53:36;19.77;;;6.30;;
80557;SDS011;69901;43.524;-5.636;2023-12-04T13:56:14;13.32;;;3.72;;
80557;SDS011;69901;43.524;-5.636;2023-12-04T13:58:49;7.20;;;3.20;;
80557;SDS011;69901;43.524;-5.636;2023-12-04T14:01:22;16.15;;;3.95;;
80557;SDS011;69901;43.524;-5.636;2023-12-04T14:03:51;14.82;;;2.67;;
80557;SDS011;69901;43.524;-5.636;2023-12-04T14:06:18;9.80;;;2.25;;
80557;SDS011;69901;43.524;-5.636;2023-12-04T14:08:43;10.77;;;3.17;;
80557;SDS011;69901;43.524;-5.636;2023-12-04T14:11:10;9.98;;;2.83;;
80557;SDS011;69901;43.524;-5.636;2023-12-04T14:13:36;18.75;;;1.88;;